Airfield :
LOGIN :

Register | Disclaimer

   EN    FR    IT 

 










Legend :    VFR   Marginal VFR   IFR   Intensive IFR   Very Intensive IFR
Visi :
Ceiling :
>= 8 km
>= 3000ft
5 to 8 km
1000 to 3000 ft
1500m to 5 km
500 to 1000 ft
800 to 1500m
200 to 500 ft
< 800m
< 200 ft
Symbols :   Thunderstorms  Fog  Heavy snow  Heavy precipitations  Wind > 20 kt
SIGMETs :     Misc.  Thunderstorms  Icing  Turbulence  Mountain Waves  Volcanic Ashes







- Airport Elevation : 39 ft
- IATA code : ANR


EBAW - Anvers / Antwerpen Deurne

CURRENT METAR :
  • 230450Z AUTO 19015G26KT CAVOK 14/04 Q0996

EXPIRED METARs :
  • 230420Z AUTO 19013KT CAVOK 14/04 Q0996
  • 230350Z AUTO 20017G28KT CAVOK 14/04 Q0997
  • 230320Z AUTO 19015KT CAVOK 14/03 Q0997
  • 230250Z AUTO 19013KT CAVOK 14/04 Q0998
  • 230220Z AUTO 19012KT CAVOK 14/03 Q0998

TAF TAF EBAW
Valid from the 23 at 03:00 until the 23 at 12:00 UTC


230210Z 2303/2312 18015KT CAVOK
TEMPO 2306/2311 20020G38KT
TEMPO 2308/2310 SCT008 BKN012
PROB30
TEMPO 2308/2310 4000 SHRA
BECMG 2310/2312 25012KT
TEMPO 2311/2316 24015G25KT
No reported NOTAMs for that airfield.
3 SIGMETs reported for the Brussels FIR (EBBU) :
 
Severe turbulence
EBBU SIGMET 03 VALID 230300/230700 EBBR
EBBU BRUSSELS FIR SEV TURB FCST W OF E005 SFC/FL050 MOV NE 15KT NC=
SIGMET 01 cancelation
EBBU SIGMET 02 VALID 230300/230700 EBBR
EBBU BRUSSELS FIR CNL SIGMET 01 VALID 230300/230700=
SIGMET 01  CANCELED :
Severe turbulence
EBBU SIGMET 01 VALID 230300/230700 EBBR
EBBU BRUSSELS FIR SEV TURB FCST W E005 SFC/FL050 MOV NE 15KT NC=



MET'MAP, your aeronautical weather chart ! - Copyright ORBIFLY December 2007 - Disclaimer

ORBIFLY MET'MAP TEAM :

Programming & Development : Alexandra Zaïnal
Concept & Development : Baudouin d'Aumeries
Co-Development & Prog : Marc-Olivier Méhu
Technical & hardware support : Manuel Goepfert

Contact : metmap@orbifly.com




SOURCES & CREDITS :

   NOAA